sensor_id;sensor_type;location;lat;lon;timestamp;P1;durP1;ratioP1;P2;durP2;ratioP2
38208;SDS011;24016;52.102;11.584;2022-09-12T00:00:25;8.82;;;6.72;;
38208;SDS011;24016;52.102;11.584;2022-09-12T00:02:51;8.13;;;7.30;;
38208;SDS011;24016;52.102;11.584;2022-09-12T00:05:17;8.52;;;7.22;;
38208;SDS011;24016;52.102;11.584;2022-09-12T00:07:43;7.90;;;7.10;;
38208;SDS011;24016;52.102;11.584;2022-09-12T00:10:08;10.48;;;7.70;;
38208;SDS011;24016;52.102;11.584;2022-09-12T00:12:34;9.13;;;8.10;;
38208;SDS011;24016;52.102;11.584;2022-09-12T00:14:59;9.95;;;8.57;;
38208;SDS011;24016;52.102;11.584;2022-09-12T00:17:25;10.25;;;8.10;;
38208;SDS011;24016;52.102;11.584;2022-09-12T00:19:51;10.30;;;8.63;;
38208;SDS011;24016;52.102;11.584;2022-09-12T00:22:17;8.90;;;7.30;;
38208;SDS011;24016;52.102;11.584;2022-09-12T00:24:42;8.85;;;7.95;;
38208;SDS011;24016;52.102;11.584;2022-09-12T00:27:08;7.45;;;6.75;;
38208;SDS011;24016;52.102;11.584;2022-09-12T00:29:33;8.05;;;6.60;;
38208;SDS011;24016;52.102;11.584;2022-09-12T00:31:59;8.10;;;7.22;;
38208;SDS011;24016;52.102;11.584;2022-09-12T00:34:25;7.35;;;6.65;;
38208;SDS011;24016;52.102;11.584;2022-09-12T00:36:50;9.70;;;6.80;;
38208;SDS011;24016;52.102;11.584;2022-09-12T00:39:16;8.15;;;7.30;;
38208;SDS011;24016;52.102;11.584;2022-09-12T00:41:42;7.78;;;6.97;;
38208;SDS011;24016;52.102;11.584;2022-09-12T00:51:54;8.80;;;7.90;;
38208;SDS011;24016;52.102;11.584;2022-09-12T00:54:38;9.32;;;7.93;;
38208;SDS011;24016;52.102;11.584;2022-09-12T00:57:11;8.68;;;7.68;;
38208;SDS011;24016;52.102;11.584;2022-09-12T00:59:40;8.63;;;7.68;;
38208;SDS011;24016;52.102;11.584;2022-09-12T01:02:18;8.60;;;7.78;;
38208;SDS011;24016;52.102;11.584;2022-09-12T01:04:45;8.57;;;7.75;;
38208;SDS011;24016;52.102;11.584;2022-09-12T01:07:11;9.25;;;8.23;;
38208;SDS011;24016;52.102;11.584;2022-09-12T01:09:39;7.88;;;7.18;;
38208;SDS011;24016;52.102;11.584;2022-09-12T01:12:06;9.27;;;7.43;;
38208;SDS011;24016;52.102;11.584;2022-09-12T01:14:33;8.40;;;7.53;;
38208;SDS011;24016;52.102;11.584;2022-09-12T01:16:59;8.60;;;7.20;;
38208;SDS011;24016;52.102;11.584;2022-09-12T01:19:43;9.07;;;6.70;;
38208;SDS011;24016;52.102;11.584;2022-09-12T01:25:30;7.47;;;6.68;;
38208;SDS011;24016;52.102;11.584;2022-09-12T01:28:10;10.43;;;8.13;;
38208;SDS011;24016;52.102;11.584;2022-09-12T01:33:37;7.57;;;6.32;;
38208;SDS011;24016;52.102;11.584;2022-09-12T01:36:27;8.73;;;7.80;;
38208;SDS011;24016;52.102;11.584;2022-09-12T01:39:03;8.63;;;7.50;;
38208;SDS011;24016;52.102;11.584;2022-09-12T01:41:40;8.60;;;6.93;;
38208;SDS011;24016;52.102;11.584;2022-09-12T01:47:20;10.18;;;7.90;;
38208;SDS011;24016;52.102;11.584;2022-09-12T01:52:36;8.00;;;7.18;;
38208;SDS011;24016;52.102;11.584;2022-09-12T01:55:09;8.77;;;7.88;;
38208;SDS011;24016;52.102;11.584;2022-09-12T01:57:57;8.02;;;7.22;;
38208;SDS011;24016;52.102;11.584;2022-09-12T02:00:30;7.75;;;6.93;;
38208;SDS011;24016;52.102;11.584;2022-09-12T02:03:06;8.90;;;7.53;;
38208;SDS011;24016;52.102;11.584;2022-09-12T02:05:38;10.38;;;8.32;;
38208;SDS011;24016;52.102;11.584;2022-09-12T02:08:09;9.75;;;8.75;;
38208;SDS011;24016;52.102;11.584;2022-09-12T02:11:21;9.55;;;8.38;;
38208;SDS011;24016;52.102;11.584;2022-09-12T02:13:35;9.55;;;8.35;;
38208;SDS011;24016;52.102;11.584;2022-09-12T02:16:20;8.90;;;8.00;;
38208;SDS011;24016;52.102;11.584;2022-09-12T02:18:52;9.30;;;8.40;;
38208;SDS011;24016;52.102;11.584;2022-09-12T02:21:21;10.13;;;8.70;;
38208;SDS011;24016;52.102;11.584;2022-09-12T02:23:54;11.43;;;9.50;;
38208;SDS011;24016;52.102;11.584;2022-09-12T02:26:24;12.25;;;9.73;;
38208;SDS011;24016;52.102;11.584;2022-09-12T02:29:05;10.05;;;8.80;;
38208;SDS011;24016;52.102;11.584;2022-09-12T02:36:56;12.38;;;9.38;;
38208;SDS011;24016;52.102;11.584;2022-09-12T02:39:30;12.18;;;9.40;;
38208;SDS011;24016;52.102;11.584;2022-09-12T02:41:56;11.20;;;9.95;;
38208;SDS011;24016;52.102;11.584;2022-09-12T02:44:24;10.65;;;9.55;;
38208;SDS011;24016;52.102;11.584;2022-09-12T02:47:03;12.50;;;10.68;;
38208;SDS011;24016;52.102;11.584;2022-09-12T02:51:59;11.65;;;10.45;;
38208;SDS011;24016;52.102;11.584;2022-09-12T02:54:26;11.68;;;10.50;;
38208;SDS011;24016;52.102;11.584;2022-09-12T02:56:53;13.23;;;11.82;;
38208;SDS011;24016;52.102;11.584;2022-09-12T02:59:18;11.65;;;10.55;;
38208;SDS011;24016;52.102;11.584;2022-09-12T03:02:05;12.65;;;11.35;;
38208;SDS011;24016;52.102;11.584;2022-09-12T03:08:03;21.30;;;10.82;;
38208;SDS011;24016;52.102;11.584;2022-09-12T03:10:49;13.50;;;12.10;;
38208;SDS011;24016;52.102;11.584;2022-09-12T03:19:04;13.52;;;12.13;;
38208;SDS011;24016;52.102;11.584;2022-09-12T03:24:32;14.20;;;12.57;;
38208;SDS011;24016;52.102;11.584;2022-09-12T03:29:41;12.02;;;10.82;;
38208;SDS011;24016;52.102;11.584;2022-09-12T03:32:09;14.00;;;11.65;;
38208;SDS011;24016;52.102;11.584;2022-09-12T03:34:35;13.20;;;11.25;;
38208;SDS011;24016;52.102;11.584;2022-09-12T03:37:00;13.50;;;12.07;;
38208;SDS011;24016;52.102;11.584;2022-09-12T03:39:26;14.77;;;11.30;;
38208;SDS011;24016;52.102;11.584;2022-09-12T03:41:52;13.30;;;11.93;;
38208;SDS011;24016;52.102;11.584;2022-09-12T03:44:18;13.02;;;11.63;;
38208;SDS011;24016;52.102;11.584;2022-09-12T03:46:44;11.85;;;10.10;;
38208;SDS011;24016;52.102;11.584;2022-09-12T03:49:10;13.75;;;11.48;;
38208;SDS011;24016;52.102;11.584;2022-09-12T03:51:36;17.45;;;12.75;;
38208;SDS011;24016;52.102;11.584;2022-09-12T03:54:02;12.15;;;10.85;;
38208;SDS011;24016;52.102;11.584;2022-09-12T03:56:28;12.70;;;11.32;;
38208;SDS011;24016;52.102;11.584;2022-09-12T03:58:54;15.52;;;12.25;;
38208;SDS011;24016;52.102;11.584;2022-09-12T04:01:19;13.55;;;12.05;;
38208;SDS011;24016;52.102;11.584;2022-09-12T04:03:46;15.85;;;13.00;;
38208;SDS011;24016;52.102;11.584;2022-09-12T04:06:14;15.25;;;12.07;;
38208;SDS011;24016;52.102;11.584;2022-09-12T04:08:41;15.85;;;12.55;;
38208;SDS011;24016;52.102;11.584;2022-09-12T04:11:11;13.27;;;11.82;;
38208;SDS011;24016;52.102;11.584;2022-09-12T04:13:38;12.45;;;11.07;;
38208;SDS011;24016;52.102;11.584;2022-09-12T04:16:05;13.93;;;11.40;;
38208;SDS011;24016;52.102;11.584;2022-09-12T04:18:32;16.75;;;12.73;;
38208;SDS011;24016;52.102;11.584;2022-09-12T04:21:00;13.27;;;11.65;;
38208;SDS011;24016;52.102;11.584;2022-09-12T04:23:32;14.02;;;12.52;;
38208;SDS011;24016;52.102;11.584;2022-09-12T04:25:58;16.33;;;13.02;;
38208;SDS011;24016;52.102;11.584;2022-09-12T04:28:25;14.60;;;12.75;;
38208;SDS011;24016;52.102;11.584;2022-09-12T04:30:53;17.52;;;12.73;;
38208;SDS011;24016;52.102;11.584;2022-09-12T04:33:19;13.32;;;11.95;;
38208;SDS011;24016;52.102;11.584;2022-09-12T04:35:47;14.48;;;12.88;;
38208;SDS011;24016;52.102;11.584;2022-09-12T04:38:13;18.52;;;14.18;;
38208;SDS011;24016;52.102;11.584;2022-09-12T04:40:38;17.00;;;12.60;;
38208;SDS011;24016;52.102;11.584;2022-09-12T04:43:05;16.50;;;13.73;;
38208;SDS011;24016;52.102;11.584;2022-09-12T04:45:31;15.20;;;12.55;;
38208;SDS011;24016;52.102;11.584;2022-09-12T04:47:57;15.10;;;13.18;;
38208;SDS011;24016;52.102;11.584;2022-09-12T04:50:23;15.80;;;14.10;;
38208;SDS011;24016;52.102;11.584;2022-09-12T04:52:52;20.23;;;14.90;;
38208;SDS011;24016;52.102;11.584;2022-09-12T04:55:19;14.93;;;11.90;;
38208;SDS011;24016;52.102;11.584;2022-09-12T04:57:46;16.05;;;12.98;;
38208;SDS011;24016;52.102;11.584;2022-09-12T05:00:12;17.55;;;12.90;;
38208;SDS011;24016;52.102;11.584;2022-09-12T05:02:39;14.85;;;13.32;;
38208;SDS011;24016;52.102;11.584;2022-09-12T05:05:06;18.17;;;14.07;;
38208;SDS011;24016;52.102;11.584;2022-09-12T05:07:32;14.27;;;12.75;;
38208;SDS011;24016;52.102;11.584;2022-09-12T05:09:57;15.38;;;13.65;;
38208;SDS011;24016;52.102;11.584;2022-09-12T05:12:24;16.80;;;15.00;;
38208;SDS011;24016;52.102;11.584;2022-09-12T05:14:50;16.90;;;15.10;;
38208;SDS011;24016;52.102;11.584;2022-09-12T05:17:15;16.98;;;14.77;;
38208;SDS011;24016;52.102;11.584;2022-09-12T05:19:41;16.40;;;14.27;;
38208;SDS011;24016;52.102;11.584;2022-09-12T05:22:06;17.42;;;15.05;;
38208;SDS011;24016;52.102;11.584;2022-09-12T05:24:32;16.63;;;14.45;;
38208;SDS011;24016;52.102;11.584;2022-09-12T05:26:59;17.50;;;14.27;;
38208;SDS011;24016;52.102;11.584;2022-09-12T05:29:24;18.85;;;14.90;;
38208;SDS011;24016;52.102;11.584;2022-09-12T05:31:50;17.05;;;15.00;;
38208;SDS011;24016;52.102;11.584;2022-09-12T05:34:17;18.45;;;15.38;;
38208;SDS011;24016;52.102;11.584;2022-09-12T05:36:43;18.80;;;15.57;;
38208;SDS011;24016;52.102;11.584;2022-09-12T05:39:08;18.75;;;16.75;;
38208;SDS011;24016;52.102;11.584;2022-09-12T05:41:34;19.75;;;17.65;;
38208;SDS011;24016;52.102;11.584;2022-09-12T05:44:04;20.48;;;15.93;;
38208;SDS011;24016;52.102;11.584;2022-09-12T05:46:34;19.05;;;16.52;;
38208;SDS011;24016;52.102;11.584;2022-09-12T05:49:03;19.58;;;17.17;;
38208;SDS011;24016;52.102;11.584;2022-09-12T05:51:34;19.13;;;17.20;;
38208;SDS011;24016;52.102;11.584;2022-09-12T05:54:02;21.63;;;17.92;;
38208;SDS011;24016;52.102;11.584;2022-09-12T05:56:30;20.60;;;18.40;;
38208;SDS011;24016;52.102;11.584;2022-09-12T05:58:59;19.77;;;17.70;;
38208;SDS011;24016;52.102;11.584;2022-09-12T06:01:27;21.08;;;18.05;;
38208;SDS011;24016;52.102;11.584;2022-09-12T06:03:55;20.58;;;17.10;;
38208;SDS011;24016;52.102;11.584;2022-09-12T06:06:24;20.90;;;16.65;;
38208;SDS011;24016;52.102;11.584;2022-09-12T06:08:52;19.13;;;15.82;;
38208;SDS011;24016;52.102;11.584;2022-09-12T06:11:21;17.50;;;15.65;;
38208;SDS011;24016;52.102;11.584;2022-09-12T06:13:50;16.48;;;14.82;;
38208;SDS011;24016;52.102;11.584;2022-09-12T06:16:17;15.57;;;14.07;;
38208;SDS011;24016;52.102;11.584;2022-09-12T06:18:47;17.33;;;14.63;;
38208;SDS011;24016;52.102;11.584;2022-09-12T06:21:14;15.43;;;13.82;;
38208;SDS011;24016;52.102;11.584;2022-09-12T06:23:40;16.40;;;14.50;;
38208;SDS011;24016;52.102;11.584;2022-09-12T06:26:08;17.13;;;15.43;;
38208;SDS011;24016;52.102;11.584;2022-09-12T06:28:35;16.50;;;14.80;;
38208;SDS011;24016;52.102;11.584;2022-09-12T06:31:03;15.55;;;12.63;;
38208;SDS011;24016;52.102;11.584;2022-09-12T06:33:31;24.00;;;14.40;;
38208;SDS011;24016;52.102;11.584;2022-09-12T06:36:05;24.98;;;13.75;;
38208;SDS011;24016;52.102;11.584;2022-09-12T06:38:35;18.38;;;12.60;;
38208;SDS011;24016;52.102;11.584;2022-09-12T06:41:04;28.63;;;14.55;;
38208;SDS011;24016;52.102;11.584;2022-09-12T06:43:34;20.42;;;14.10;;
38208;SDS011;24016;52.102;11.584;2022-09-12T06:46:00;14.60;;;12.20;;
38208;SDS011;24016;52.102;11.584;2022-09-12T06:48:27;19.13;;;13.13;;
38208;SDS011;24016;52.102;11.584;2022-09-12T06:50:54;16.40;;;13.35;;
38208;SDS011;24016;52.102;11.584;2022-09-12T06:53:24;19.27;;;13.88;;
38208;SDS011;24016;52.102;11.584;2022-09-12T06:55:56;14.50;;;13.00;;
38208;SDS011;24016;52.102;11.584;2022-09-12T06:58:23;14.18;;;12.68;;
38208;SDS011;24016;52.102;11.584;2022-09-12T07:00:50;15.18;;;13.30;;
38208;SDS011;24016;52.102;11.584;2022-09-12T07:03:16;13.85;;;12.45;;
38208;SDS011;24016;52.102;11.584;2022-09-12T07:05:42;14.27;;;12.75;;
38208;SDS011;24016;52.102;11.584;2022-09-12T07:08:09;12.85;;;11.55;;
38208;SDS011;24016;52.102;11.584;2022-09-12T07:10:34;12.52;;;11.20;;
38208;SDS011;24016;52.102;11.584;2022-09-12T07:13:00;13.48;;;11.63;;
38208;SDS011;24016;52.102;11.584;2022-09-12T07:15:26;11.93;;;10.68;;
38208;SDS011;24016;52.102;11.584;2022-09-12T07:17:52;12.80;;;11.50;;
38208;SDS011;24016;52.102;11.584;2022-09-12T07:20:18;11.38;;;10.27;;
38208;SDS011;24016;52.102;11.584;2022-09-12T07:22:43;12.02;;;10.25;;
38208;SDS011;24016;52.102;11.584;2022-09-12T07:25:09;11.13;;;9.68;;
38208;SDS011;24016;52.102;11.584;2022-09-12T07:27:34;10.68;;;9.50;;
38208;SDS011;24016;52.102;11.584;2022-09-12T07:30:02;14.65;;;9.93;;
38208;SDS011;24016;52.102;11.584;2022-09-12T07:32:29;12.35;;;10.20;;
38208;SDS011;24016;52.102;11.584;2022-09-12T07:34:54;10.95;;;8.75;;
38208;SDS011;24016;52.102;11.584;2022-09-12T07:37:20;9.90;;;8.90;;
38208;SDS011;24016;52.102;11.584;2022-09-12T07:39:46;11.40;;;10.02;;
38208;SDS011;24016;52.102;11.584;2022-09-12T07:42:11;10.18;;;8.65;;
38208;SDS011;24016;52.102;11.584;2022-09-12T07:44:37;9.13;;;8.23;;
38208;SDS011;24016;52.102;11.584;2022-09-12T07:47:02;9.95;;;8.75;;
38208;SDS011;24016;52.102;11.584;2022-09-12T07:49:28;10.52;;;9.48;;
38208;SDS011;24016;52.102;11.584;2022-09-12T07:51:54;10.13;;;7.55;;
38208;SDS011;24016;52.102;11.584;2022-09-12T07:54:20;11.93;;;8.95;;
38208;SDS011;24016;52.102;11.584;2022-09-12T07:56:46;11.80;;;8.45;;
38208;SDS011;24016;52.102;11.584;2022-09-12T07:59:12;9.32;;;8.32;;
38208;SDS011;24016;52.102;11.584;2022-09-12T08:01:37;9.48;;;8.35;;
38208;SDS011;24016;52.102;11.584;2022-09-12T08:04:04;11.02;;;8.30;;
38208;SDS011;24016;52.102;11.584;2022-09-12T08:06:30;9.50;;;8.35;;
38208;SDS011;24016;52.102;11.584;2022-09-12T08:08:58;10.38;;;8.52;;
38208;SDS011;24016;52.102;11.584;2022-09-12T08:11:24;12.13;;;8.07;;
38208;SDS011;24016;52.102;11.584;2022-09-12T08:13:52;10.65;;;7.72;;
38208;SDS011;24016;52.102;11.584;2022-09-12T08:16:21;7.78;;;6.97;;
38208;SDS011;24016;52.102;11.584;2022-09-12T08:18:49;10.25;;;7.85;;
38208;SDS011;24016;52.102;11.584;2022-09-12T08:23:45;11.93;;;8.75;;
38208;SDS011;24016;52.102;11.584;2022-09-12T08:26:11;9.30;;;7.43;;
38208;SDS011;24016;52.102;11.584;2022-09-12T08:28:38;10.55;;;7.22;;
38208;SDS011;24016;52.102;11.584;2022-09-12T08:31:09;8.55;;;6.82;;
38208;SDS011;24016;52.102;11.584;2022-09-12T08:33:36;10.50;;;7.80;;
38208;SDS011;24016;52.102;11.584;2022-09-12T08:36:08;9.63;;;7.22;;
38208;SDS011;24016;52.102;11.584;2022-09-12T08:38:46;9.38;;;8.00;;
38208;SDS011;24016;52.102;11.584;2022-09-12T08:41:31;12.30;;;9.20;;
38208;SDS011;24016;52.102;11.584;2022-09-12T08:46:54;10.55;;;8.30;;
38208;SDS011;24016;52.102;11.584;2022-09-12T08:52:38;12.50;;;8.93;;
38208;SDS011;24016;52.102;11.584;2022-09-12T08:55:17;12.20;;;9.23;;
38208;SDS011;24016;52.102;11.584;2022-09-12T08:57:44;11.45;;;8.10;;
38208;SDS011;24016;52.102;11.584;2022-09-12T09:00:13;10.00;;;7.65;;
38208;SDS011;24016;52.102;11.584;2022-09-12T09:05:31;11.00;;;9.55;;
38208;SDS011;24016;52.102;11.584;2022-09-12T09:08:43;15.73;;;8.70;;
38208;SDS011;24016;52.102;11.584;2022-09-12T09:11:32;10.90;;;8.45;;
38208;SDS011;24016;52.102;11.584;2022-09-12T09:17:11;13.23;;;8.07;;
38208;SDS011;24016;52.102;11.584;2022-09-12T09:19:56;10.15;;;7.85;;
38208;SDS011;24016;52.102;11.584;2022-09-12T09:22:49;12.07;;;8.27;;
38208;SDS011;24016;52.102;11.584;2022-09-12T09:25:25;10.35;;;7.90;;
38208;SDS011;24016;52.102;11.584;2022-09-12T09:31:19;11.40;;;7.80;;
38208;SDS011;24016;52.102;11.584;2022-09-12T09:33:49;14.35;;;9.60;;
38208;SDS011;24016;52.102;11.584;2022-09-12T09:36:20;8.68;;;7.20;;
38208;SDS011;24016;52.102;11.584;2022-09-12T09:39:03;10.35;;;7.78;;
38208;SDS011;24016;52.102;11.584;2022-09-12T09:44:17;10.40;;;8.40;;
38208;SDS011;24016;52.102;11.584;2022-09-12T09:46:43;11.32;;;8.77;;
38208;SDS011;24016;52.102;11.584;2022-09-12T09:49:09;12.20;;;9.32;;
38208;SDS011;24016;52.102;11.584;2022-09-12T09:51:39;12.20;;;9.57;;
38208;SDS011;24016;52.102;11.584;2022-09-12T09:54:09;11.98;;;9.15;;
38208;SDS011;24016;52.102;11.584;2022-09-12T09:56:45;12.35;;;9.90;;
38208;SDS011;24016;52.102;11.584;2022-09-12T09:59:11;15.30;;;9.38;;
38208;SDS011;24016;52.102;11.584;2022-09-12T10:01:55;11.63;;;8.88;;
38208;SDS011;24016;52.102;11.584;2022-09-12T10:04:56;10.77;;;7.55;;
38208;SDS011;24016;52.102;11.584;2022-09-12T10:07:23;9.65;;;7.60;;
38208;SDS011;24016;52.102;11.584;2022-09-12T10:10:04;7.43;;;5.40;;
38208;SDS011;24016;52.102;11.584;2022-09-12T10:12:41;7.38;;;5.53;;
38208;SDS011;24016;52.102;11.584;2022-09-12T10:15:15;8.27;;;5.28;;
38208;SDS011;24016;52.102;11.584;2022-09-12T10:17:46;6.80;;;4.45;;
38208;SDS011;24016;52.102;11.584;2022-09-12T10:23:01;7.60;;;5.40;;
38208;SDS011;24016;52.102;11.584;2022-09-12T10:25:44;6.28;;;4.35;;
38208;SDS011;24016;52.102;11.584;2022-09-12T10:28:24;7.22;;;4.85;;
38208;SDS011;24016;52.102;11.584;2022-09-12T10:30:58;5.65;;;4.70;;
38208;SDS011;24016;52.102;11.584;2022-09-12T10:33:26;5.63;;;3.53;;
38208;SDS011;24016;52.102;11.584;2022-09-12T10:35:53;4.18;;;2.70;;
38208;SDS011;24016;52.102;11.584;2022-09-12T10:38:26;2.63;;;1.40;;
38208;SDS011;24016;52.102;11.584;2022-09-12T10:41:03;4.50;;;2.75;;
38208;SDS011;24016;52.102;11.584;2022-09-12T10:43:40;6.05;;;3.70;;
38208;SDS011;24016;52.102;11.584;2022-09-12T10:48:46;4.70;;;3.67;;
38208;SDS011;24016;52.102;11.584;2022-09-12T10:53:48;7.80;;;3.80;;
38208;SDS011;24016;52.102;11.584;2022-09-12T11:01:37;4.50;;;3.28;;
38208;SDS011;24016;52.102;11.584;2022-09-12T11:06:53;4.63;;;2.90;;
38208;SDS011;24016;52.102;11.584;2022-09-12T11:09:37;5.27;;;3.33;;
38208;SDS011;24016;52.102;11.584;2022-09-12T11:15:02;5.15;;;3.30;;
38208;SDS011;24016;52.102;11.584;2022-09-12T11:17:49;3.72;;;2.67;;
38208;SDS011;24016;52.102;11.584;2022-09-12T11:32:00;3.67;;;2.38;;
38208;SDS011;24016;52.102;11.584;2022-09-12T11:37:23;3.95;;;2.65;;
38208;SDS011;24016;52.102;11.584;2022-09-12T11:40:05;5.35;;;2.67;;
38208;SDS011;24016;52.102;11.584;2022-09-12T11:42:44;4.68;;;2.60;;
38208;SDS011;24016;52.102;11.584;2022-09-12T11:45:18;3.20;;;2.40;;
38208;SDS011;24016;52.102;11.584;2022-09-12T11:47:51;3.78;;;2.20;;
38208;SDS011;24016;52.102;11.584;2022-09-12T11:50:26;3.50;;;2.40;;
38208;SDS011;24016;52.102;11.584;2022-09-12T11:52:54;3.78;;;2.30;;
38208;SDS011;24016;52.102;11.584;2022-09-12T11:55:52;3.15;;;2.17;;
38208;SDS011;24016;52.102;11.584;2022-09-12T11:58:26;3.55;;;2.20;;
38208;SDS011;24016;52.102;11.584;2022-09-12T12:00:55;3.10;;;2.25;;
38208;SDS011;24016;52.102;11.584;2022-09-12T12:03:41;4.93;;;2.05;;
38208;SDS011;24016;52.102;11.584;2022-09-12T12:06:14;3.80;;;1.83;;
38208;SDS011;24016;52.102;11.584;2022-09-12T12:08:43;4.15;;;2.20;;
38208;SDS011;24016;52.102;11.584;2022-09-12T12:11:23;2.75;;;1.95;;
38208;SDS011;24016;52.102;11.584;2022-09-12T12:14:03;4.50;;;2.20;;
38208;SDS011;24016;52.102;11.584;2022-09-12T12:16:36;3.47;;;1.92;;
38208;SDS011;24016;52.102;11.584;2022-09-12T12:19:05;3.75;;;1.98;;
38208;SDS011;24016;52.102;11.584;2022-09-12T12:21:42;3.40;;;2.42;;
38208;SDS011;24016;52.102;11.584;2022-09-12T12:26:53;5.05;;;1.85;;
38208;SDS011;24016;52.102;11.584;2022-09-12T12:29:43;3.20;;;1.75;;
38208;SDS011;24016;52.102;11.584;2022-09-12T12:34:35;2.45;;;1.60;;
38208;SDS011;24016;52.102;11.584;2022-09-12T12:47:40;4.22;;;1.95;;
38208;SDS011;24016;52.102;11.584;2022-09-12T12:52:57;3.25;;;2.08;;
38208;SDS011;24016;52.102;11.584;2022-09-12T12:55:28;2.58;;;1.85;;
38208;SDS011;24016;52.102;11.584;2022-09-12T12:57:55;3.05;;;1.70;;
38208;SDS011;24016;52.102;11.584;2022-09-12T13:05:45;2.65;;;1.30;;
38208;SDS011;24016;52.102;11.584;2022-09-12T13:10:49;2.50;;;1.42;;
38208;SDS011;24016;52.102;11.584;2022-09-12T13:13:22;3.35;;;1.63;;
38208;SDS011;24016;52.102;11.584;2022-09-12T13:16:10;1.98;;;1.30;;
38208;SDS011;24016;52.102;11.584;2022-09-12T13:18:46;2.40;;;1.50;;
38208;SDS011;24016;52.102;11.584;2022-09-12T13:21:14;1.83;;;1.15;;
38208;SDS011;24016;52.102;11.584;2022-09-12T13:23:42;1.30;;;1.15;;
38208;SDS011;24016;52.102;11.584;2022-09-12T13:26:10;2.13;;;1.10;;
38208;SDS011;24016;52.102;11.584;2022-09-12T13:28:38;2.08;;;1.40;;
38208;SDS011;24016;52.102;11.584;2022-09-12T13:33:50;2.42;;;1.35;;
38208;SDS011;24016;52.102;11.584;2022-09-12T13:36:40;2.55;;;1.60;;
38208;SDS011;24016;52.102;11.584;2022-09-12T13:39:26;3.25;;;1.70;;
38208;SDS011;24016;52.102;11.584;2022-09-12T13:45:23;5.70;;;1.85;;
38208;SDS011;24016;52.102;11.584;2022-09-12T13:47:57;2.20;;;1.35;;
38208;SDS011;24016;52.102;11.584;2022-09-12T13:50:27;2.13;;;1.40;;
38208;SDS011;24016;52.102;11.584;2022-09-12T13:53:13;3.67;;;1.60;;
38208;SDS011;24016;52.102;11.584;2022-09-12T13:55:42;2.08;;;1.50;;
38208;SDS011;24016;52.102;11.584;2022-09-12T13:58:19;2.83;;;1.60;;
38208;SDS011;24016;52.102;11.584;2022-09-12T14:03:53;5.28;;;1.70;;
38208;SDS011;24016;52.102;11.584;2022-09-12T14:06:48;4.30;;;1.42;;
38208;SDS011;24016;52.102;11.584;2022-09-12T14:09:20;2.30;;;1.70;;
38208;SDS011;24016;52.102;11.584;2022-09-12T14:11:48;2.60;;;1.60;;
38208;SDS011;24016;52.102;11.584;2022-09-12T14:14:37;6.15;;;1.48;;
38208;SDS011;24016;52.102;11.584;2022-09-12T14:17:15;3.95;;;1.70;;
38208;SDS011;24016;52.102;11.584;2022-09-12T14:19:41;2.72;;;1.48;;
38208;SDS011;24016;52.102;11.584;2022-09-12T14:22:08;2.47;;;1.52;;
38208;SDS011;24016;52.102;11.584;2022-09-12T14:24:42;2.05;;;1.40;;
38208;SDS011;24016;52.102;11.584;2022-09-12T14:27:26;2.75;;;1.40;;
38208;SDS011;24016;52.102;11.584;2022-09-12T14:30:02;2.65;;;1.40;;
38208;SDS011;24016;52.102;11.584;2022-09-12T14:32:33;3.35;;;1.40;;
38208;SDS011;24016;52.102;11.584;2022-09-12T14:35:06;2.17;;;1.40;;
38208;SDS011;24016;52.102;11.584;2022-09-12T14:37:44;2.28;;;1.30;;
38208;SDS011;24016;52.102;11.584;2022-09-12T14:40:20;1.95;;;1.25;;
38208;SDS011;24016;52.102;11.584;2022-09-12T14:42:48;1.48;;;0.98;;
38208;SDS011;24016;52.102;11.584;2022-09-12T14:45:16;3.55;;;1.25;;
38208;SDS011;24016;52.102;11.584;2022-09-12T14:47:48;2.17;;;1.00;;
38208;SDS011;24016;52.102;11.584;2022-09-12T14:50:17;2.20;;;1.10;;
38208;SDS011;24016;52.102;11.584;2022-09-12T14:52:45;2.38;;;1.10;;
38208;SDS011;24016;52.102;11.584;2022-09-12T14:55:29;1.67;;;1.15;;
38208;SDS011;24016;52.102;11.584;2022-09-12T14:58:13;2.05;;;1.00;;
38208;SDS011;24016;52.102;11.584;2022-09-12T15:00:59;2.25;;;1.23;;
38208;SDS011;24016;52.102;11.584;2022-09-12T15:03:32;1.23;;;1.00;;
38208;SDS011;24016;52.102;11.584;2022-09-12T15:06:22;2.00;;;1.17;;
38208;SDS011;24016;52.102;11.584;2022-09-12T15:08:54;3.42;;;1.10;;
38208;SDS011;24016;52.102;11.584;2022-09-12T15:11:23;2.10;;;1.00;;
38208;SDS011;24016;52.102;11.584;2022-09-12T15:13:49;1.13;;;1.02;;
38208;SDS011;24016;52.102;11.584;2022-09-12T15:16:14;1.40;;;1.10;;
38208;SDS011;24016;52.102;11.584;2022-09-12T15:18:40;2.28;;;1.23;;
38208;SDS011;24016;52.102;11.584;2022-09-12T15:21:06;1.65;;;1.17;;
38208;SDS011;24016;52.102;11.584;2022-09-12T15:23:48;5.13;;;1.40;;
38208;SDS011;24016;52.102;11.584;2022-09-12T15:26:18;2.75;;;1.48;;
38208;SDS011;24016;52.102;11.584;2022-09-12T15:28:50;3.90;;;1.30;;
38208;SDS011;24016;52.102;11.584;2022-09-12T15:31:29;4.40;;;1.60;;
38208;SDS011;24016;52.102;11.584;2022-09-12T15:33:57;4.35;;;1.30;;
38208;SDS011;24016;52.102;11.584;2022-09-12T15:36:25;2.13;;;1.23;;
38208;SDS011;24016;52.102;11.584;2022-09-12T15:38:53;2.55;;;1.50;;
38208;SDS011;24016;52.102;11.584;2022-09-12T15:41:20;2.42;;;1.40;;
38208;SDS011;24016;52.102;11.584;2022-09-12T15:43:47;2.03;;;1.15;;
38208;SDS011;24016;52.102;11.584;2022-09-12T15:46:14;2.28;;;1.42;;
38208;SDS011;24016;52.102;11.584;2022-09-12T15:48:40;4.38;;;1.80;;
38208;SDS011;24016;52.102;11.584;2022-09-12T15:51:14;4.57;;;1.60;;
38208;SDS011;24016;52.102;11.584;2022-09-12T15:53:44;3.88;;;1.40;;
38208;SDS011;24016;52.102;11.584;2022-09-12T15:56:10;3.60;;;1.65;;
38208;SDS011;24016;52.102;11.584;2022-09-12T15:58:37;1.75;;;1.40;;
38208;SDS011;24016;52.102;11.584;2022-09-12T16:01:03;2.63;;;1.40;;
38208;SDS011;24016;52.102;11.584;2022-09-12T16:03:29;2.22;;;1.50;;
38208;SDS011;24016;52.102;11.584;2022-09-12T16:05:59;2.35;;;1.70;;
38208;SDS011;24016;52.102;11.584;2022-09-12T16:08:26;1.52;;;1.38;;
38208;SDS011;24016;52.102;11.584;2022-09-12T16:10:58;3.05;;;1.70;;
38208;SDS011;24016;52.102;11.584;2022-09-12T16:13:26;1.75;;;1.40;;
38208;SDS011;24016;52.102;11.584;2022-09-12T16:15:55;2.67;;;1.60;;
38208;SDS011;24016;52.102;11.584;2022-09-12T16:18:21;3.45;;;1.73;;
38208;SDS011;24016;52.102;11.584;2022-09-12T16:20:50;1.98;;;1.50;;
38208;SDS011;24016;52.102;11.584;2022-09-12T16:23:17;3.60;;;1.88;;
38208;SDS011;24016;52.102;11.584;2022-09-12T16:25:42;2.85;;;1.83;;
38208;SDS011;24016;52.102;11.584;2022-09-12T16:28:08;1.88;;;1.40;;
38208;SDS011;24016;52.102;11.584;2022-09-12T16:30:34;3.45;;;1.60;;
38208;SDS011;24016;52.102;11.584;2022-09-12T16:33:00;2.10;;;1.60;;
38208;SDS011;24016;52.102;11.584;2022-09-12T16:35:26;4.10;;;1.75;;
38208;SDS011;24016;52.102;11.584;2022-09-12T16:37:51;2.70;;;1.70;;
38208;SDS011;24016;52.102;11.584;2022-09-12T16:40:17;3.60;;;1.88;;
38208;SDS011;24016;52.102;11.584;2022-09-12T16:42:43;2.55;;;1.60;;
38208;SDS011;24016;52.102;11.584;2022-09-12T16:45:09;2.88;;;1.80;;
38208;SDS011;24016;52.102;11.584;2022-09-12T16:47:36;5.18;;;1.73;;
38208;SDS011;24016;52.102;11.584;2022-09-12T16:50:02;5.03;;;1.80;;
38208;SDS011;24016;52.102;11.584;2022-09-12T16:52:28;1.58;;;1.42;;
38208;SDS011;24016;52.102;11.584;2022-09-12T16:54:55;2.78;;;1.90;;